Time;durP1;ratioP1;P1;durP2;ratioP2;P2;SDS_P1;SDS_P2;PMS_P1;PMS_P2;Temp;Humidity;BMP_temperature;BMP_pressure;BME280_temperature;BME280_humidity;BME280_pressure;Samples;Min_cycle;Max_cycle;Signal;HPM_P1;HPM_P2
2022/12/18 00:00:58;;;;;;;19.48;11.75;;;;;;;;;;5095666;28;20471;-68
2022/12/18 00:03:24;;;;;;;17.65;12.35;;;;;;;;;;5096396;28;20038;-68
2022/12/18 00:05:51;;;;;;;17.25;11.57;;;;;;;;;;5095887;28;20040;-68
2022/12/18 00:08:18;;;;;;;17.42;11.13;;;;;;;;;;5095661;28;20032;-68
2022/12/18 00:10:44;;;;;;;17.60;12.05;;;;;;;;;;5095562;28;20038;-68
2022/12/18 00:13:11;;;;;;;20.33;12.38;;;;;;;;;;5096267;28;20084;-68
2022/12/18 00:15:38;;;;;;;18.10;12.50;;;;;;;;;;5095578;28;20043;-68
2022/12/18 00:18:05;;;;;;;21.58;13.60;;;;;;;;;;5096185;28;20340;-68
2022/12/18 00:20:31;;;;;;;17.70;11.95;;;;;;;;;;5095248;28;20100;-69
2022/12/18 00:22:57;;;;;;;18.42;12.20;;;;;;;;;;5095546;28;20051;-70
2022/12/18 00:25:23;;;;;;;17.20;10.82;;;;;;;;;;5095543;28;20044;-70
2022/12/18 00:27:49;;;;;;;18.15;10.85;;;;;;;;;;5094862;28;20063;-70
2022/12/18 00:30:16;;;;;;;16.83;14.32;;;;;;;;;;5095033;28;20126;-70
2022/12/18 00:32:42;;;;;;;22.38;17.83;;;;;;;;;;5095542;28;20047;-68
2022/12/18 00:35:08;;;;;;;15.82;10.82;;;;;;;;;;5093814;28;20036;-70
2022/12/18 00:37:34;;;;;;;15.52;9.73;;;;;;;;;;5093600;28;20107;-70
2022/12/18 00:40:01;;;;;;;14.05;8.13;;;;;;;;;;5094095;28;20043;-70
2022/12/18 00:45:12;;;;;;;13.00;9.15;;;;;;;;;;5093314;28;20045;-70
2022/12/18 00:47:38;;;;;;;13.45;7.30;;;;;;;;;;5092777;28;20043;-70
2022/12/18 00:50:04;;;;;;;25.05;18.05;;;;;;;;;;5092706;28;20044;-70
2022/12/18 00:52:30;;;;;;;13.10;8.75;;;;;;;;;;5092323;28;20113;-70
2022/12/18 00:54:56;;;;;;;10.65;7.65;;;;;;;;;;5092721;28;20040;-70
2022/12/18 00:57:22;;;;;;;10.43;7.55;;;;;;;;;;5093001;28;20040;-70
2022/12/18 00:59:48;;;;;;;10.85;7.72;;;;;;;;;;5093585;28;20486;-70
2022/12/18 01:02:15;;;;;;;13.05;7.57;;;;;;;;;;5095244;28;20039;-70
2022/12/18 01:04:41;;;;;;;10.15;7.85;;;;;;;;;;5094367;28;20496;-70
2022/12/18 01:07:07;;;;;;;12.82;8.75;;;;;;;;;;5094781;28;20084;-70
2022/12/18 01:09:34;;;;;;;18.80;12.63;;;;;;;;;;5094948;28;20084;-70
2022/12/18 01:12:00;;;;;;;14.27;9.30;;;;;;;;;;5094645;28;20043;-70
2022/12/18 01:14:26;;;;;;;11.88;8.30;;;;;;;;;;5094726;28;20063;-70
2022/12/18 01:16:52;;;;;;;14.70;9.70;;;;;;;;;;5094285;28;20036;-70
2022/12/18 01:19:18;;;;;;;13.13;8.43;;;;;;;;;;5094251;28;20047;-70
2022/12/18 01:21:44;;;;;;;14.65;9.15;;;;;;;;;;5094411;28;20106;-70
2022/12/18 01:24:12;;;;;;;15.82;9.90;;;;;;;;;;5094213;28;20062;-70
2022/12/18 01:26:38;;;;;;;16.58;9.65;;;;;;;;;;5094266;28;20048;-69
2022/12/18 01:29:04;;;;;;;14.18;9.80;;;;;;;;;;5094123;28;20032;-70
2022/12/18 01:31:31;;;;;;;15.38;9.48;;;;;;;;;;5094152;28;20439;-70
2022/12/18 01:33:58;;;;;;;14.15;9.32;;;;;;;;;;5094381;28;20043;-70
2022/12/18 01:36:25;;;;;;;13.13;8.43;;;;;;;;;;5094613;28;20028;-70
2022/12/18 01:38:51;;;;;;;14.13;9.43;;;;;;;;;;5094481;28;20122;-70
2022/12/18 01:41:20;;;;;;;12.18;9.07;;;;;;;;;;5094054;28;20032;-70
2022/12/18 01:43:59;;;;;;;14.18;8.55;;;;;;;;;;5094663;28;20040;-70
2022/12/18 01:46:26;;;;;;;14.13;9.85;;;;;;;;;;5094917;28;20036;-70
2022/12/18 01:49:00;;;;;;;19.38;11.82;;;;;;;;;;5094190;28;20189;-70
2022/12/18 01:51:27;;;;;;;11.80;8.48;;;;;;;;;;5094553;28;20119;-70
2022/12/18 01:53:53;;;;;;;14.68;10.20;;;;;;;;;;5094723;28;20537;-70
2022/12/18 01:56:20;;;;;;;17.10;12.20;;;;;;;;;;5097756;28;20028;-70
2022/12/18 01:58:50;;;;;;;15.20;11.20;;;;;;;;;;5097974;28;20072;-70
2022/12/18 02:01:17;;;;;;;15.63;11.93;;;;;;;;;;5097705;28;20055;-70
2022/12/18 02:03:43;;;;;;;14.32;9.05;;;;;;;;;;5097872;28;20036;-70
2022/12/18 02:06:17;;;;;;;17.98;13.60;;;;;;;;;;5097825;28;20044;-70
2022/12/18 02:08:43;;;;;;;16.00;11.40;;;;;;;;;;5097889;28;20111;-70
2022/12/18 02:11:28;;;;;;;17.27;13.38;;;;;;;;;;5097463;28;20478;-70
2022/12/18 02:14:12;;;;;;;17.00;10.90;;;;;;;;;;5097936;28;20116;-70
2022/12/18 02:16:48;;;;;;;16.70;12.00;;;;;;;;;;5097343;28;20390;-70
2022/12/18 02:19:18;;;;;;;17.25;11.43;;;;;;;;;;5097880;28;20040;-70
2022/12/18 02:22:07;;;;;;;12.75;9.00;;;;;;;;;;5097191;28;20044;-70
2022/12/18 02:24:33;;;;;;;12.38;9.00;;;;;;;;;;5094545;28;20032;-70
2022/12/18 02:27:01;;;;;;;18.08;11.50;;;;;;;;;;5097205;28;20139;-70
2022/12/18 02:29:50;;;;;;;16.67;11.00;;;;;;;;;;5097308;28;20038;-70
2022/12/18 02:32:18;;;;;;;17.20;10.07;;;;;;;;;;5097330;28;20123;-70
2022/12/18 02:34:45;;;;;;;15.73;9.73;;;;;;;;;;5097010;28;20032;-67
2022/12/18 02:37:12;;;;;;;13.05;9.38;;;;;;;;;;5097328;28;20127;-67
2022/12/18 02:39:40;;;;;;;15.25;9.15;;;;;;;;;;5097598;28;20039;-67
2022/12/18 02:42:09;;;;;;;26.85;18.00;;;;;;;;;;5096932;28;20450;-67
2022/12/18 02:44:36;;;;;;;17.15;11.75;;;;;;;;;;5097071;28;20561;-67
2022/12/18 02:47:02;;;;;;;14.68;10.73;;;;;;;;;;5097186;28;20043;-67
2022/12/18 02:49:57;;;;;;;19.63;11.82;;;;;;;;;;5096977;28;20132;-67
2022/12/18 02:52:29;;;;;;;14.10;8.77;;;;;;;;;;5076526;28;20120;-68
2022/12/18 02:55:14;;;;;;;10.40;7.47;;;;;;;;;;5097017;28;20044;-67
2022/12/18 02:57:40;;;;;;;19.38;12.07;;;;;;;;;;5097325;28;20036;-67
2022/12/18 03:00:09;;;;;;;15.38;9.43;;;;;;;;;;5096798;28;20040;-67
2022/12/18 03:02:48;;;;;;;12.32;8.60;;;;;;;;;;5097121;28;20047;-67
2022/12/18 03:05:20;;;;;;;12.38;8.13;;;;;;;;;;5096123;28;20071;-67
2022/12/18 03:07:49;;;;;;;9.60;6.90;;;;;;;;;;5096423;28;20054;-67
2022/12/18 03:10:18;;;;;;;9.23;6.40;;;;;;;;;;5096674;28;20044;-67
2022/12/18 03:12:48;;;;;;;9.32;6.97;;;;;;;;;;5096734;28;20048;-67
2022/12/18 03:15:31;;;;;;;7.95;6.38;;;;;;;;;;5096255;28;20122;-67
2022/12/18 03:18:01;;;;;;;9.02;7.03;;;;;;;;;;5096475;28;20043;-67
2022/12/18 03:20:30;;;;;;;9.13;6.50;;;;;;;;;;5096485;28;20040;-67
2022/12/18 03:23:00;;;;;;;9.82;6.47;;;;;;;;;;5096517;28;20130;-67
2022/12/18 03:25:27;;;;;;;9.77;7.03;;;;;;;;;;5096070;28;20435;-67
2022/12/18 03:27:55;;;;;;;9.35;6.57;;;;;;;;;;5096017;28;20067;-67
2022/12/18 03:30:22;;;;;;;8.40;6.68;;;;;;;;;;5096347;28;20032;-68
2022/12/18 03:32:51;;;;;;;12.45;6.82;;;;;;;;;;5096216;28;20044;-67
2022/12/18 03:35:23;;;;;;;10.52;7.80;;;;;;;;;;5096022;28;20024;-68
2022/12/18 03:37:49;;;;;;;10.80;7.63;;;;;;;;;;5096181;28;20118;-67
2022/12/18 03:40:15;;;;;;;11.25;7.53;;;;;;;;;;5096228;28;20054;-67
2022/12/18 03:42:48;;;;;;;10.63;7.50;;;;;;;;;;5096268;28;20036;-67
2022/12/18 03:45:20;;;;;;;10.88;7.55;;;;;;;;;;5096141;28;20048;-67
2022/12/18 03:48:04;;;;;;;8.38;6.32;;;;;;;;;;5096490;28;20089;-67
2022/12/18 03:50:46;;;;;;;10.13;6.50;;;;;;;;;;5095461;28;20043;-67
2022/12/18 03:53:19;;;;;;;9.18;6.25;;;;;;;;;;5095734;28;20040;-67
2022/12/18 03:55:45;;;;;;;8.02;6.53;;;;;;;;;;5095837;28;20032;-67
2022/12/18 03:58:13;;;;;;;7.53;6.10;;;;;;;;;;5095715;28;20075;-67
2022/12/18 04:00:40;;;;;;;7.32;5.70;;;;;;;;;;5095672;28;20106;-67
2022/12/18 04:03:06;;;;;;;7.07;5.57;;;;;;;;;;5095946;28;20043;-67
2022/12/18 04:05:34;;;;;;;6.68;5.20;;;;;;;;;;5095230;28;20035;-67
2022/12/18 04:08:01;;;;;;;8.07;5.53;;;;;;;;;;5095633;28;20035;-67
2022/12/18 04:10:27;;;;;;;8.80;5.57;;;;;;;;;;5095322;28;20035;-67
2022/12/18 04:12:56;;;;;;;8.38;5.72;;;;;;;;;;5095640;28;20044;-67
2022/12/18 04:15:22;;;;;;;7.55;5.20;;;;;;;;;;5095603;28;20055;-67
2022/12/18 04:17:49;;;;;;;6.88;4.70;;;;;;;;;;5095528;28;20070;-67
2022/12/18 04:20:15;;;;;;;8.07;4.95;;;;;;;;;;5095222;28;20525;-67
2022/12/18 04:22:41;;;;;;;7.70;4.88;;;;;;;;;;5095041;28;20040;-67
2022/12/18 04:25:08;;;;;;;6.28;4.90;;;;;;;;;;5094655;28;20517;-67
2022/12/18 04:27:34;;;;;;;8.43;4.68;;;;;;;;;;5094981;28;20032;-67
2022/12/18 04:30:01;;;;;;;8.57;4.55;;;;;;;;;;5094818;28;20153;-67
2022/12/18 04:32:27;;;;;;;4.57;3.95;;;;;;;;;;5095539;28;20040;-67
2022/12/18 04:34:53;;;;;;;5.72;4.63;;;;;;;;;;5095240;28;20072;-67
2022/12/18 04:37:19;;;;;;;5.68;4.40;;;;;;;;;;5094851;28;20071;-67
2022/12/18 04:39:45;;;;;;;7.80;4.85;;;;;;;;;;5095033;28;20127;-68
2022/12/18 04:42:11;;;;;;;8.63;4.47;;;;;;;;;;5095567;28;20118;-67
2022/12/18 04:44:37;;;;;;;5.47;4.30;;;;;;;;;;5095075;28;20103;-67
2022/12/18 04:47:03;;;;;;;6.38;3.90;;;;;;;;;;5094876;28;20028;-67
2022/12/18 04:49:29;;;;;;;5.60;4.28;;;;;;;;;;5094641;28;20123;-67
2022/12/18 04:51:56;;;;;;;5.00;4.10;;;;;;;;;;5095262;28;20055;-67
2022/12/18 04:54:22;;;;;;;7.38;4.72;;;;;;;;;;5094531;28;20034;-67
2022/12/18 04:56:49;;;;;;;5.30;4.30;;;;;;;;;;5094850;28;20043;-67
2022/12/18 04:59:15;;;;;;;6.07;4.35;;;;;;;;;;5094806;28;20112;-67
2022/12/18 05:01:41;;;;;;;6.05;4.13;;;;;;;;;;5095358;28;20048;-67
2022/12/18 05:04:07;;;;;;;6.97;4.50;;;;;;;;;;5094686;28;20032;-67
2022/12/18 05:06:33;;;;;;;5.40;4.18;;;;;;;;;;5094777;28;20116;-67
2022/12/18 05:09:00;;;;;;;5.18;4.18;;;;;;;;;;5095165;28;20097;-67
2022/12/18 05:11:26;;;;;;;9.15;8.00;;;;;;;;;;5094621;28;20359;-67
2022/12/18 05:13:52;;;;;;;10.55;7.25;;;;;;;;;;5094600;28;20032;-67
2022/12/18 05:16:18;;;;;;;5.90;4.38;;;;;;;;;;5094606;28;20059;-67
2022/12/18 05:18:44;;;;;;;5.22;4.22;;;;;;;;;;5094568;28;20359;-67
2022/12/18 05:21:10;;;;;;;5.10;4.10;;;;;;;;;;5094206;28;20028;-67
2022/12/18 05:23:37;;;;;;;5.93;4.32;;;;;;;;;;5094362;28;20036;-67
2022/12/18 05:26:04;;;;;;;5.68;4.18;;;;;;;;;;5094151;28;20052;-67
2022/12/18 05:28:31;;;;;;;5.55;3.90;;;;;;;;;;5095042;28;20085;-67
2022/12/18 05:30:58;;;;;;;7.95;4.00;;;;;;;;;;5098560;28;20082;-67
2022/12/18 05:33:25;;;;;;;8.98;4.28;;;;;;;;;;5097706;28;20577;-67
2022/12/18 05:35:52;;;;;;;5.05;4.30;;;;;;;;;;5098209;28;20035;-67
2022/12/18 05:38:19;;;;;;;7.47;4.53;;;;;;;;;;5097964;28;20039;-67
2022/12/18 05:40:45;;;;;;;4.47;3.80;;;;;;;;;;5098066;28;20131;-67
2022/12/18 05:43:12;;;;;;;5.55;4.13;;;;;;;;;;5099217;28;20032;-67
2022/12/18 05:45:41;;;;;;;5.20;4.25;;;;;;;;;;5098246;28;20051;-67
2022/12/18 05:48:07;;;;;;;5.90;4.60;;;;;;;;;;5097927;28;20040;-67
2022/12/18 05:50:37;;;;;;;5.78;4.68;;;;;;;;;;5098267;28;20048;-67
2022/12/18 05:53:04;;;;;;;6.05;4.55;;;;;;;;;;5097805;28;20590;-67
2022/12/18 05:55:34;;;;;;;6.63;4.20;;;;;;;;;;5097801;28;20129;-67
2022/12/18 05:58:00;;;;;;;4.85;4.05;;;;;;;;;;5098019;28;20028;-67
2022/12/18 06:00:27;;;;;;;5.95;4.63;;;;;;;;;;5097948;28;20054;-67
2022/12/18 06:02:53;;;;;;;6.38;4.90;;;;;;;;;;5097785;28;20113;-67
2022/12/18 06:05:19;;;;;;;5.38;4.22;;;;;;;;;;5097866;28;20039;-67
2022/12/18 06:07:45;;;;;;;9.52;7.70;;;;;;;;;;5097536;28;20044;-67
2022/12/18 06:10:11;;;;;;;5.70;4.50;;;;;;;;;;5097438;28;20032;-67
2022/12/18 06:12:38;;;;;;;7.75;4.95;;;;;;;;;;5097783;28;20055;-67
2022/12/18 06:15:04;;;;;;;9.70;4.72;;;;;;;;;;5097428;28;20093;-66
2022/12/18 06:17:31;;;;;;;7.45;4.55;;;;;;;;;;5097343;28;20396;-67
2022/12/18 06:19:57;;;;;;;7.05;4.32;;;;;;;;;;5097530;28;20039;-67
2022/12/18 06:22:23;;;;;;;6.45;4.65;;;;;;;;;;5097879;28;20046;-67
2022/12/18 06:24:49;;;;;;;8.13;4.63;;;;;;;;;;5097405;28;20097;-67
2022/12/18 06:27:15;;;;;;;8.60;5.60;;;;;;;;;;5097327;28;20051;-67
2022/12/18 06:29:42;;;;;;;13.27;6.20;;;;;;;;;;5097734;28;20036;-67
2022/12/18 06:32:08;;;;;;;8.70;5.22;;;;;;;;;;5097454;28;20069;-67
2022/12/18 06:34:35;;;;;;;7.07;5.07;;;;;;;;;;5097346;28;20028;-67
2022/12/18 06:37:01;;;;;;;6.25;4.38;;;;;;;;;;5096856;28;20092;-67
2022/12/18 06:39:30;;;;;;;6.15;4.80;;;;;;;;;;5097254;28;20551;-67
2022/12/18 06:41:56;;;;;;;7.25;5.22;;;;;;;;;;5096198;28;20036;-67
2022/12/18 06:44:22;;;;;;;7.55;5.82;;;;;;;;;;5097394;28;20024;-67
2022/12/18 06:46:48;;;;;;;10.27;6.03;;;;;;;;;;5096858;28;20044;-67
2022/12/18 06:49:15;;;;;;;7.45;5.38;;;;;;;;;;5096692;28;20047;-67
2022/12/18 06:51:41;;;;;;;6.82;5.22;;;;;;;;;;5096599;28;20130;-67
2022/12/18 06:54:07;;;;;;;7.47;4.70;;;;;;;;;;5096712;28;20058;-67
2022/12/18 06:56:34;;;;;;;6.45;4.90;;;;;;;;;;5096652;28;20513;-67
2022/12/18 06:59:00;;;;;;;7.18;4.32;;;;;;;;;;5096606;28;20089;-67
2022/12/18 07:01:26;;;;;;;6.05;4.18;;;;;;;;;;5096850;28;20036;-69
2022/12/18 07:03:54;;;;;;;4.93;4.20;;;;;;;;;;5096775;28;20032;-70
2022/12/18 07:06:21;;;;;;;5.97;4.13;;;;;;;;;;5096969;28;20374;-70
2022/12/18 07:08:47;;;;;;;5.68;4.18;;;;;;;;;;5096166;28;20371;-70
2022/12/18 07:11:14;;;;;;;6.00;4.45;;;;;;;;;;5096648;28;20046;-70
2022/12/18 07:13:40;;;;;;;5.63;4.40;;;;;;;;;;5096463;28;20040;-70
2022/12/18 07:16:07;;;;;;;6.68;4.13;;;;;;;;;;5096555;28;20044;-70
2022/12/18 07:18:33;;;;;;;7.30;3.63;;;;;;;;;;5097051;28;20036;-70
2022/12/18 07:21:02;;;;;;;5.72;4.50;;;;;;;;;;5096454;28;20036;-70
2022/12/18 07:23:28;;;;;;;4.65;3.95;;;;;;;;;;5096850;28;20040;-70
2022/12/18 07:25:54;;;;;;;6.40;4.53;;;;;;;;;;5096215;28;20052;-70
2022/12/18 07:28:21;;;;;;;5.97;4.45;;;;;;;;;;5096244;28;20491;-70
2022/12/18 07:30:47;;;;;;;5.28;4.03;;;;;;;;;;5096287;28;20042;-70
2022/12/18 07:33:13;;;;;;;6.18;4.10;;;;;;;;;;5096832;28;20051;-70
2022/12/18 07:35:39;;;;;;;6.97;4.03;;;;;;;;;;5096442;28;20093;-70
2022/12/18 07:38:05;;;;;;;5.40;3.95;;;;;;;;;;5095258;28;20383;-70
2022/12/18 07:40:32;;;;;;;5.90;4.45;;;;;;;;;;5096318;28;20032;-69
2022/12/18 07:42:58;;;;;;;4.22;3.67;;;;;;;;;;5095716;28;20032;-70
2022/12/18 07:45:24;;;;;;;5.97;4.35;;;;;;;;;;5096177;28;20032;-70
2022/12/18 07:47:50;;;;;;;4.40;3.97;;;;;;;;;;5096243;28;20115;-70
2022/12/18 07:50:16;;;;;;;5.47;4.22;;;;;;;;;;5095999;28;20039;-70
2022/12/18 07:52:42;;;;;;;5.72;4.15;;;;;;;;;;5096154;28;20035;-70
2022/12/18 07:55:08;;;;;;;7.28;4.63;;;;;;;;;;5095826;28;20040;-70
2022/12/18 07:57:35;;;;;;;8.48;5.18;;;;;;;;;;5095745;28;20486;-70
2022/12/18 08:00:01;;;;;;;7.15;5.07;;;;;;;;;;5095838;28;20040;-70
2022/12/18 08:02:27;;;;;;;7.65;5.50;;;;;;;;;;5096553;28;20044;-70
2022/12/18 08:04:53;;;;;;;6.65;4.55;;;;;;;;;;5095863;28;20039;-70
2022/12/18 08:07:19;;;;;;;6.55;4.97;;;;;;;;;;5095366;28;20370;-70
2022/12/18 08:09:46;;;;;;;8.68;5.18;;;;;;;;;;5095728;28;20051;-70
2022/12/18 08:12:12;;;;;;;7.03;5.05;;;;;;;;;;5096149;28;20073;-70
2022/12/18 08:14:38;;;;;;;7.30;5.47;;;;;;;;;;5095451;28;20032;-70
2022/12/18 08:17:04;;;;;;;6.95;5.18;;;;;;;;;;5096251;28;20036;-70
2022/12/18 08:19:30;;;;;;;5.68;4.35;;;;;;;;;;5095278;28;20055;-70
2022/12/18 08:21:56;;;;;;;8.90;5.65;;;;;;;;;;5095783;28;20047;-69
2022/12/18 08:24:22;;;;;;;6.68;4.72;;;;;;;;;;5095590;28;20032;-70
2022/12/18 08:26:49;;;;;;;9.13;5.95;;;;;;;;;;5095557;28;20040;-69
2022/12/18 08:29:16;;;;;;;7.60;5.85;;;;;;;;;;5077087;28;20576;-69
2022/12/18 08:31:42;;;;;;;10.05;5.50;;;;;;;;;;5085149;28;20376;-69
2022/12/18 08:34:08;;;;;;;7.82;4.68;;;;;;;;;;5096576;28;20055;-69
2022/12/18 08:36:35;;;;;;;6.15;4.78;;;;;;;;;;5103854;28;20032;-68
2022/12/18 08:39:01;;;;;;;7.90;5.30;;;;;;;;;;5105697;28;20035;-69
2022/12/18 08:41:27;;;;;;;5.75;4.60;;;;;;;;;;5104890;28;20096;-68
2022/12/18 08:46:39;;;;;;;6.35;4.70;;;;;;;;;;5093233;28;20386;-69
2022/12/18 08:49:06;;;;;;;5.65;4.30;;;;;;;;;;5096408;28;20043;-69
2022/12/18 08:51:32;;;;;;;5.35;4.40;;;;;;;;;;5099174;28;20482;-66
2022/12/18 08:53:58;;;;;;;5.95;4.90;;;;;;;;;;5113084;28;20541;-66
2022/12/18 08:56:24;;;;;;;7.45;4.53;;;;;;;;;;5107173;28;20483;-67
2022/12/18 08:58:54;;;;;;;6.30;4.50;;;;;;;;;;5093783;28;20094;-66
2022/12/18 09:01:20;;;;;;;10.82;5.47;;;;;;;;;;5094622;28;20032;-67
2022/12/18 09:03:46;;;;;;;15.80;4.82;;;;;;;;;;5094502;28;20032;-66
2022/12/18 09:06:17;;;;;;;6.93;4.50;;;;;;;;;;5083122;28;20106;-66
2022/12/18 09:08:43;;;;;;;6.57;4.47;;;;;;;;;;5074754;28;20046;-66
2022/12/18 09:11:14;;;;;;;11.95;7.30;;;;;;;;;;5088987;28;20036;-66
2022/12/18 09:13:40;;;;;;;8.85;6.60;;;;;;;;;;5093240;28;20158;-66
2022/12/18 09:16:07;;;;;;;7.50;5.13;;;;;;;;;;5093898;28;20040;-66
2022/12/18 09:18:33;;;;;;;5.95;4.50;;;;;;;;;;5093491;28;20085;-66
2022/12/18 09:20:59;;;;;;;5.80;4.68;;;;;;;;;;5092383;28;20123;-66
2022/12/18 09:23:25;;;;;;;7.32;5.25;;;;;;;;;;5093268;28;20532;-66
2022/12/18 09:25:51;;;;;;;6.88;4.78;;;;;;;;;;5093243;28;20132;-66
2022/12/18 09:28:19;;;;;;;5.90;4.38;;;;;;;;;;5092990;28;20445;-66
2022/12/18 09:30:49;;;;;;;5.15;4.63;;;;;;;;;;5093208;28;20097;-66
2022/12/18 09:33:15;;;;;;;10.70;8.98;;;;;;;;;;5075342;28;20070;-66
2022/12/18 09:35:43;;;;;;;9.80;4.32;;;;;;;;;;5081590;28;20054;-66
2022/12/18 09:38:10;;;;;;;5.43;3.92;;;;;;;;;;5093080;28;20032;-66
2022/12/18 09:40:40;;;;;;;6.32;4.13;;;;;;;;;;5103897;28;20036;-66
2022/12/18 09:43:07;;;;;;;5.03;3.83;;;;;;;;;;5108065;28;20096;-67
2022/12/18 09:45:49;;;;;;;6.53;4.05;;;;;;;;;;5072922;28;20532;-67
2022/12/18 09:48:24;;;;;;;4.68;4.22;;;;;;;;;;5073271;28;20066;-67
2022/12/18 09:50:51;;;;;;;5.63;4.90;;;;;;;;;;5087703;28;20064;-66
2022/12/18 09:53:23;;;;;;;5.05;3.80;;;;;;;;;;5096978;28;20494;-68
2022/12/18 09:55:49;;;;;;;5.07;3.78;;;;;;;;;;5112973;28;20031;-67
2022/12/18 09:58:18;;;;;;;5.43;4.10;;;;;;;;;;5113664;28;20464;-67
2022/12/18 10:00:44;;;;;;;5.82;3.97;;;;;;;;;;5114560;28;20028;-67
2022/12/18 10:03:12;;;;;;;6.93;4.10;;;;;;;;;;5114556;28;20043;-67
2022/12/18 10:05:44;;;;;;;7.80;5.72;;;;;;;;;;5114523;28;20056;-67
2022/12/18 10:08:14;;;;;;;7.53;4.97;;;;;;;;;;5114593;28;20039;-67
2022/12/18 10:10:44;;;;;;;5.45;4.20;;;;;;;;;;5114139;28;20040;-67
2022/12/18 10:13:19;;;;;;;11.52;8.40;;;;;;;;;;5114731;28;20043;-67
2022/12/18 10:15:53;;;;;;;5.10;3.72;;;;;;;;;;5116785;28;20035;-67
2022/12/18 10:18:22;;;;;;;5.68;4.43;;;;;;;;;;5118323;28;20074;-67
2022/12/18 10:20:58;;;;;;;5.80;4.20;;;;;;;;;;5117545;28;20430;-67
2022/12/18 10:23:30;;;;;;;5.25;3.97;;;;;;;;;;5117571;28;20035;-67
2022/12/18 10:26:00;;;;;;;5.97;4.32;;;;;;;;;;5117769;28;20532;-67
2022/12/18 10:28:27;;;;;;;5.35;4.28;;;;;;;;;;5118187;28;20047;-67
2022/12/18 10:30:53;;;;;;;5.97;4.40;;;;;;;;;;5118193;28;20042;-67
2022/12/18 10:33:21;;;;;;;6.28;3.50;;;;;;;;;;5118710;28;20454;-67
2022/12/18 10:35:49;;;;;;;6.53;4.30;;;;;;;;;;5117615;28;20024;-67
2022/12/18 10:38:19;;;;;;;5.40;3.78;;;;;;;;;;5117834;28;20039;-67
2022/12/18 10:40:49;;;;;;;6.50;4.25;;;;;;;;;;5117819;28;20035;-66
2022/12/18 10:43:20;;;;;;;6.10;3.88;;;;;;;;;;5118301;28;20107;-66
2022/12/18 10:45:58;;;;;;;4.95;3.67;;;;;;;;;;5104224;28;20046;-66
2022/12/18 10:48:25;;;;;;;4.78;3.83;;;;;;;;;;5085645;28;20070;-66
2022/12/18 10:50:51;;;;;;;4.65;3.60;;;;;;;;;;5087753;28;20120;-65
2022/12/18 10:53:28;;;;;;;4.85;3.78;;;;;;;;;;5096043;28;20067;-66
2022/12/18 10:55:56;;;;;;;6.43;4.88;;;;;;;;;;5087043;28;20028;-66
2022/12/18 10:58:33;;;;;;;3.30;2.70;;;;;;;;;;5095254;28;20387;-66
2022/12/18 11:01:10;;;;;;;11.15;9.35;;;;;;;;;;5092232;28;20326;-66
2022/12/18 11:03:44;;;;;;;3.17;2.83;;;;;;;;;;5094138;28;20058;-66
2022/12/18 11:06:17;;;;;;;3.90;3.28;;;;;;;;;;5095058;28;20097;-66
2022/12/18 11:08:45;;;;;;;3.67;3.38;;;;;;;;;;5094477;28;20052;-66
2022/12/18 11:11:21;;;;;;;4.03;3.20;;;;;;;;;;5091018;28;20085;-67
2022/12/18 11:13:59;;;;;;;3.83;3.28;;;;;;;;;;5087257;28;20032;-66
2022/12/18 11:16:25;;;;;;;4.22;3.55;;;;;;;;;;5075208;28;20028;-67
2022/12/18 11:18:51;;;;;;;3.63;3.13;;;;;;;;;;5085358;28;20498;-66
2022/12/18 11:21:18;;;;;;;5.07;3.85;;;;;;;;;;5087678;28;20055;-66
2022/12/18 11:23:54;;;;;;;5.60;4.05;;;;;;;;;;5095711;28;20047;-66
2022/12/18 11:26:21;;;;;;;8.07;4.85;;;;;;;;;;5094597;28;20047;-66
2022/12/18 11:28:50;;;;;;;9.10;8.00;;;;;;;;;;5095695;28;20040;-66
2022/12/18 11:31:21;;;;;;;7.40;3.80;;;;;;;;;;5095501;28;20435;-66
2022/12/18 11:33:47;;;;;;;;;;;;;;;;;;5095782;28;20103;-66
2022/12/18 11:36:13;;;;;;;4.40;2.67;;;;;;;;;;5095773;28;19936;-66
2022/12/18 11:38:44;;;;;;;4.47;3.17;;;;;;;;;;5094290;28;20441;-66
2022/12/18 11:44:16;;;;;;;2.58;2.35;;;;;;;;;;5094921;28;20041;-66
2022/12/18 11:46:47;;;;;;;3.72;2.60;;;;;;;;;;5095207;28;20035;-66
2022/12/18 11:49:21;;;;;;;3.80;2.70;;;;;;;;;;5095450;28;20101;-65
2022/12/18 11:52:02;;;;;;;3.70;2.60;;;;;;;;;;5094618;28;20119;-65
2022/12/18 11:54:28;;;;;;;3.03;2.35;;;;;;;;;;5094543;28;20115;-66
2022/12/18 11:56:56;;;;;;;4.07;2.70;;;;;;;;;;5095066;28;20043;-65
2022/12/18 11:59:33;;;;;;;2.58;2.28;;;;;;;;;;5094527;28;20509;-65
2022/12/18 12:01:59;;;;;;;4.55;3.22;;;;;;;;;;5095056;28;20042;-65
2022/12/18 12:04:35;;;;;;;3.10;2.33;;;;;;;;;;5094783;28;20165;-65
2022/12/18 12:07:01;;;;;;;2.35;1.70;;;;;;;;;;5095173;28;20036;-65
2022/12/18 12:09:27;;;;;;;2.08;1.80;;;;;;;;;;5094093;28;20127;-65
2022/12/18 12:11:53;;;;;;;2.97;2.05;;;;;;;;;;5094750;28;20039;-65
2022/12/18 12:14:33;;;;;;;3.85;2.20;;;;;;;;;;5094919;28;20491;-65
2022/12/18 12:17:04;;;;;;;4.28;2.35;;;;;;;;;;5094719;28;20039;-65
2022/12/18 12:19:30;;;;;;;;;;;;;;;;;;5095581;28;20043;-65
2022/12/18 12:22:18;;;;;;;2.95;2.22;;;;;;;;;;5094987;28;19904;-65
2022/12/18 12:24:50;;;;;;;4.68;3.38;;;;;;;;;;5095324;28;20039;-65
2022/12/18 12:27:39;;;;;;;2.92;2.35;;;;;;;;;;5095132;28;20051;-65
2022/12/18 12:30:08;;;;;;;2.58;1.92;;;;;;;;;;5090165;28;20052;-65
2022/12/18 12:32:43;;;;;;;3.42;2.40;;;;;;;;;;5095228;28;20471;-65
2022/12/18 12:35:24;;;;;;;3.53;2.08;;;;;;;;;;5095073;28;20040;-65
2022/12/18 12:38:10;;;;;;;2.70;2.10;;;;;;;;;;5094617;28;20044;-65
2022/12/18 12:40:38;;;;;;;4.10;2.30;;;;;;;;;;5094999;28;20482;-65
2022/12/18 12:43:31;;;;;;;5.70;3.70;;;;;;;;;;5094836;28;20064;-65
2022/12/18 12:45:58;;;;;;;3.75;2.97;;;;;;;;;;5085176;28;20043;-65
2022/12/18 12:48:33;;;;;;;2.72;1.95;;;;;;;;;;5094594;28;20058;-65
2022/12/18 12:51:03;;;;;;;2.50;2.30;;;;;;;;;;5094932;28;20031;-65
2022/12/18 12:53:35;;;;;;;3.38;2.10;;;;;;;;;;5094157;28;20085;-65
2022/12/18 12:56:02;;;;;;;2.40;1.85;;;;;;;;;;5094274;28;20031;-65
2022/12/18 12:58:32;;;;;;;2.97;2.08;;;;;;;;;;5094336;28;20046;-65
2022/12/18 13:01:01;;;;;;;3.13;2.30;;;;;;;;;;5093735;28;20119;-65
2022/12/18 13:03:41;;;;;;;5.05;2.08;;;;;;;;;;5093639;28;20115;-65
2022/12/18 13:06:20;;;;;;;3.30;2.03;;;;;;;;;;5093616;28;20036;-66
2022/12/18 13:09:12;;;;;;;4.97;2.08;;;;;;;;;;5091603;28;20048;-66
2022/12/18 13:14:32;;;;;;;2.85;1.83;;;;;;;;;;5092917;28;20043;-66
2022/12/18 13:17:17;;;;;;;2.95;1.88;;;;;;;;;;5091460;28;20113;-66
2022/12/18 13:19:44;;;;;;;4.05;2.90;;;;;;;;;;5092707;28;20031;-67
2022/12/18 13:22:29;;;;;;;6.40;5.28;;;;;;;;;;5093360;28;20044;-67
2022/12/18 13:24:55;;;;;;;4.50;2.88;;;;;;;;;;5091669;28;20266;-66
2022/12/18 13:27:40;;;;;;;3.15;2.40;;;;;;;;;;5094284;28;20058;-66
2022/12/18 13:30:41;;;;;;;2.85;2.10;;;;;;;;;;5093299;28;20075;-66
2022/12/18 13:33:16;;;;;;;4.47;2.53;;;;;;;;;;5071174;28;20044;-66
2022/12/18 13:35:42;;;;;;;2.63;2.15;;;;;;;;;;5090449;28;20038;-67
2022/12/18 13:38:26;;;;;;;3.67;2.80;;;;;;;;;;5093452;28;20556;-66
2022/12/18 13:40:56;;;;;;;2.90;2.60;;;;;;;;;;5107085;28;20440;-66
2022/12/18 13:43:24;;;;;;;4.85;2.92;;;;;;;;;;5093670;28;20056;-66
2022/12/18 13:46:04;;;;;;;7.45;2.60;;;;;;;;;;5093568;28;20404;-66
2022/12/18 13:48:32;;;;;;;3.08;2.40;;;;;;;;;;5093520;28;20093;-67
2022/12/18 13:51:03;;;;;;;5.10;3.33;;;;;;;;;;5096625;28;20448;-66
2022/12/18 13:53:50;;;;;;;3.70;2.92;;;;;;;;;;5097654;28;20039;-67
2022/12/18 13:56:23;;;;;;;6.95;3.55;;;;;;;;;;5097847;28;20119;-67
2022/12/18 13:59:08;;;;;;;4.60;3.22;;;;;;;;;;5097572;28;20115;-66
2022/12/18 14:01:34;;;;;;;3.65;3.25;;;;;;;;;;5097940;28;20028;-67
2022/12/18 14:04:11;;;;;;;9.18;6.32;;;;;;;;;;5097915;28;20184;-67
2022/12/18 14:06:37;;;;;;;7.40;3.33;;;;;;;;;;5097831;28;20085;-66
2022/12/18 14:09:04;;;;;;;6.57;3.38;;;;;;;;;;5097958;28;20130;-66
2022/12/18 14:11:30;;;;;;;4.68;3.72;;;;;;;;;;5097590;28;20024;-67
2022/12/18 14:13:56;;;;;;;5.00;3.53;;;;;;;;;;5094967;28;20477;-66
2022/12/18 14:16:23;;;;;;;5.55;3.55;;;;;;;;;;5097003;28;20498;-66
2022/12/18 14:18:55;;;;;;;4.90;3.05;;;;;;;;;;5097118;28;20028;-66
2022/12/18 14:21:26;;;;;;;6.75;3.70;;;;;;;;;;5096779;28;20035;-66
2022/12/18 14:24:11;;;;;;;4.57;3.40;;;;;;;;;;5096369;28;20043;-66
2022/12/18 14:26:37;;;;;;;6.93;3.60;;;;;;;;;;5097921;28;20052;-66
2022/12/18 14:29:27;;;;;;;5.20;3.50;;;;;;;;;;5097212;28;20039;-67
2022/12/18 14:32:05;;;;;;;6.15;3.67;;;;;;;;;;5074763;28;20040;-66
2022/12/18 14:34:31;;;;;;;7.70;4.05;;;;;;;;;;5080198;28;20024;-66
2022/12/18 14:36:57;;;;;;;6.30;4.40;;;;;;;;;;5094869;28;20374;-65
2022/12/18 14:39:25;;;;;;;13.48;8.05;;;;;;;;;;5096770;28;20036;-66
2022/12/18 14:41:51;;;;;;;662.50;412.63;;;;;;;;;;5097417;28;20052;-66
2022/12/18 14:44:17;;;;;;;24.13;14.43;;;;;;;;;;5076059;28;20091;-66
2022/12/18 14:46:45;;;;;;;708.13;370.67;;;;;;;;;;5076455;28;20554;-66
2022/12/18 14:49:36;;;;;;;503.73;214.57;;;;;;;;;;5076511;28;20460;-65
2022/12/18 14:52:03;;;;;;;22.80;13.15;;;;;;;;;;5072112;28;20036;-65
2022/12/18 14:54:30;;;;;;;17.10;9.93;;;;;;;;;;5076909;28;20036;-65
2022/12/18 14:57:15;;;;;;;12.35;6.28;;;;;;;;;;5075615;28;20479;-64
2022/12/18 14:59:41;;;;;;;103.57;73.30;;;;;;;;;;5075964;28;20123;-64
2022/12/18 15:02:37;;;;;;;46.80;30.58;;;;;;;;;;5074828;28;20037;-64